sensor_id;sensor_type;location;lat;lon;timestamp;pressure;altitude;pressure_sealevel;temperature;humidity
61528;BME280;47395;42.032;-8.634;2023-03-20T00:01:00;101598.16;;;12.04;75.75
61528;BME280;47395;42.032;-8.634;2023-03-20T00:03:01;101601.16;;;11.94;76.23
61528;BME280;47395;42.032;-8.634;2023-03-20T00:05:05;101604.13;;;11.86;76.31
61528;BME280;47395;42.032;-8.634;2023-03-20T00:07:05;101597.91;;;11.87;76.46
61528;BME280;47395;42.032;-8.634;2023-03-20T00:09:10;101602.38;;;11.87;76.61
61528;BME280;47395;42.032;-8.634;2023-03-20T00:11:30;101599.72;;;11.87;76.37
61528;BME280;47395;42.032;-8.634;2023-03-20T00:13:32;101597.09;;;11.87;76.52
61528;BME280;47395;42.032;-8.634;2023-03-20T00:15:38;101592.69;;;11.86;76.54
61528;BME280;47395;42.032;-8.634;2023-03-20T00:17:39;101592.84;;;11.83;76.54
61528;BME280;47395;42.032;-8.634;2023-03-20T00:19:40;101584.84;;;11.84;76.78
61528;BME280;47395;42.032;-8.634;2023-03-20T00:21:41;101588.41;;;11.83;76.81
61528;BME280;47395;42.032;-8.634;2023-03-20T00:23:42;101584.06;;;11.82;76.78
61528;BME280;47395;42.032;-8.634;2023-03-20T00:25:44;101585.72;;;11.85;76.60
61528;BME280;47395;42.032;-8.634;2023-03-20T00:27:45;101592.09;;;11.79;76.35
61528;BME280;47395;42.032;-8.634;2023-03-20T00:29:46;101592.09;;;11.79;75.92
61528;BME280;47395;42.032;-8.634;2023-03-20T00:31:47;101584.47;;;11.71;75.70
61528;BME280;47395;42.032;-8.634;2023-03-20T00:33:48;101583.50;;;11.74;75.52
61528;BME280;47395;42.032;-8.634;2023-03-20T00:35:50;101588.72;;;11.75;75.34
61528;BME280;47395;42.032;-8.634;2023-03-20T00:37:52;101583.59;;;11.71;75.41
61528;BME280;47395;42.032;-8.634;2023-03-20T00:39:53;101578.47;;;11.68;75.51
61528;BME280;47395;42.032;-8.634;2023-03-20T00:41:57;101574.97;;;11.67;75.19
61528;BME280;47395;42.032;-8.634;2023-03-20T00:44:16;101576.25;;;11.57;75.55
61528;BME280;47395;42.032;-8.634;2023-03-20T00:46:18;101580.78;;;11.53;75.78
61528;BME280;47395;42.032;-8.634;2023-03-20T00:48:19;101577.25;;;11.54;76.20
61528;BME280;47395;42.032;-8.634;2023-03-20T00:50:26;101572.25;;;11.46;76.09
61528;BME280;47395;42.032;-8.634;2023-03-20T00:52:28;101576.78;;;11.43;75.95
61528;BME280;47395;42.032;-8.634;2023-03-20T00:54:30;101570.53;;;11.45;75.80
61528;BME280;47395;42.032;-8.634;2023-03-20T00:56:40;101574.19;;;11.41;76.26
61528;BME280;47395;42.032;-8.634;2023-03-20T00:58:43;101572.84;;;11.53;76.14
61528;BME280;47395;42.032;-8.634;2023-03-20T01:00:44;101571.47;;;11.44;76.00
61528;BME280;47395;42.032;-8.634;2023-03-20T01:02:47;101576.00;;;11.41;76.00
61528;BME280;47395;42.032;-8.634;2023-03-20T01:04:48;101583.09;;;11.39;76.36
61528;BME280;47395;42.032;-8.634;2023-03-20T01:06:49;101581.78;;;11.27;76.47
61528;BME280;47395;42.032;-8.634;2023-03-20T01:08:52;101591.63;;;11.23;76.68
61528;BME280;47395;42.032;-8.634;2023-03-20T01:10:54;101580.81;;;11.29;76.73
61528;BME280;47395;42.032;-8.634;2023-03-20T01:13:01;101577.16;;;11.33;76.73
61528;BME280;47395;42.032;-8.634;2023-03-20T01:15:02;101575.50;;;11.31;76.80
61528;BME280;47395;42.032;-8.634;2023-03-20T01:17:03;101580.03;;;11.27;76.73
61528;BME280;47395;42.032;-8.634;2023-03-20T01:19:04;101567.72;;;11.26;76.71
61528;BME280;47395;42.032;-8.634;2023-03-20T01:21:07;101575.84;;;11.21;76.22
61528;BME280;47395;42.032;-8.634;2023-03-20T01:23:08;101572.38;;;11.19;75.69
61528;BME280;47395;42.032;-8.634;2023-03-20T01:25:09;101568.22;;;11.14;76.07
61528;BME280;47395;42.032;-8.634;2023-03-20T01:27:13;101568.22;;;11.14;76.10
61528;BME280;47395;42.032;-8.634;2023-03-20T01:29:20;101564.72;;;11.13;76.02
61528;BME280;47395;42.032;-8.634;2023-03-20T01:31:22;101563.00;;;11.12;76.26
61528;BME280;47395;42.032;-8.634;2023-03-20T01:33:23;101557.72;;;11.12;76.09
61528;BME280;47395;42.032;-8.634;2023-03-20T01:35:28;101556.84;;;11.12;76.03
61528;BME280;47395;42.032;-8.634;2023-03-20T01:37:34;101564.78;;;11.12;76.39
61528;BME280;47395;42.032;-8.634;2023-03-20T01:39:37;101560.41;;;11.10;76.49
61528;BME280;47395;42.032;-8.634;2023-03-20T01:41:39;101555.19;;;11.09;76.36
61528;BME280;47395;42.032;-8.634;2023-03-20T01:43:41;101556.91;;;11.10;76.58
61528;BME280;47395;42.032;-8.634;2023-03-20T01:46:12;101555.03;;;11.14;76.79
61528;BME280;47395;42.032;-8.634;2023-03-20T01:48:16;101558.56;;;11.13;76.71
61528;BME280;47395;42.032;-8.634;2023-03-20T01:50:27;101550.50;;;11.17;76.64
61528;BME280;47395;42.032;-8.634;2023-03-20T01:52:39;101546.81;;;11.21;76.81
61528;BME280;47395;42.032;-8.634;2023-03-20T01:54:41;101544.91;;;11.25;76.41
61528;BME280;47395;42.032;-8.634;2023-03-20T01:57:09;101549.72;;;11.38;76.38
61528;BME280;47395;42.032;-8.634;2023-03-20T01:59:28;101541.88;;;11.36;76.32
61528;BME280;47395;42.032;-8.634;2023-03-20T02:01:32;101539.84;;;11.43;76.13
61528;BME280;47395;42.032;-8.634;2023-03-20T02:03:35;101540.72;;;11.43;75.72
61528;BME280;47395;42.032;-8.634;2023-03-20T02:05:50;101532.66;;;11.46;75.40
61528;BME280;47395;42.032;-8.634;2023-03-20T02:08:22;101523.75;;;11.49;75.44
61528;BME280;47395;42.032;-8.634;2023-03-20T02:10:24;101522.50;;;11.59;75.31
61528;BME280;47395;42.032;-8.634;2023-03-20T02:12:46;101521.25;;;11.68;74.84
61528;BME280;47395;42.032;-8.634;2023-03-20T02:14:53;101526.06;;;11.58;74.55
61528;BME280;47395;42.032;-8.634;2023-03-20T02:17:15;101518.84;;;11.40;74.60
61528;BME280;47395;42.032;-8.634;2023-03-20T02:22:20;101521.22;;;11.47;74.91
61528;BME280;47395;42.032;-8.634;2023-03-20T02:27:22;101515.50;;;11.36;74.88
61528;BME280;47395;42.032;-8.634;2023-03-20T02:37:30;101508.25;;;11.19;74.44
61528;BME280;47395;42.032;-8.634;2023-03-20T02:42:57;101504.53;;;11.01;74.98
61528;BME280;47395;42.032;-8.634;2023-03-20T02:49:02;101500.06;;;11.03;75.16
61528;BME280;47395;42.032;-8.634;2023-03-20T02:51:14;101495.22;;;11.14;75.23
61528;BME280;47395;42.032;-8.634;2023-03-20T02:53:54;101497.91;;;11.13;75.13
61528;BME280;47395;42.032;-8.634;2023-03-20T02:58:56;101496.66;;;10.99;75.40
61528;BME280;47395;42.032;-8.634;2023-03-20T03:03:49;101496.09;;;10.91;75.22
61528;BME280;47395;42.032;-8.634;2023-03-20T03:06:29;101494.75;;;10.80;75.22
61528;BME280;47395;42.032;-8.634;2023-03-20T03:08:36;101486.19;;;10.74;74.94
61528;BME280;47395;42.032;-8.634;2023-03-20T03:10:42;101484.78;;;10.65;75.26
61528;BME280;47395;42.032;-8.634;2023-03-20T03:12:45;101479.72;;;10.58;75.69
61528;BME280;47395;42.032;-8.634;2023-03-20T03:14:52;101485.09;;;10.55;75.76
61528;BME280;47395;42.032;-8.634;2023-03-20T03:16:54;101482.59;;;10.52;75.78
61528;BME280;47395;42.032;-8.634;2023-03-20T03:19:07;101479.13;;;10.50;75.58
61528;BME280;47395;42.032;-8.634;2023-03-20T03:21:10;101480.22;;;10.44;75.34
61528;BME280;47395;42.032;-8.634;2023-03-20T03:23:39;101474.09;;;10.44;75.22
61528;BME280;47395;42.032;-8.634;2023-03-20T03:25:43;101474.13;;;10.42;75.18
61528;BME280;47395;42.032;-8.634;2023-03-20T03:27:46;101475.81;;;10.45;74.95
61528;BME280;47395;42.032;-8.634;2023-03-20T03:29:54;101480.22;;;10.44;75.31
61528;BME280;47395;42.032;-8.634;2023-03-20T03:31:56;101476.69;;;10.46;75.63
61528;BME280;47395;42.032;-8.634;2023-03-20T03:33:57;101490.03;;;10.39;75.93
61528;BME280;47395;42.032;-8.634;2023-03-20T03:36:30;101479.44;;;10.41;75.70
61528;BME280;47395;42.032;-8.634;2023-03-20T03:41:29;101480.75;;;10.29;76.00
61528;BME280;47395;42.032;-8.634;2023-03-20T03:43:56;101479.19;;;10.23;76.14
61528;BME280;47395;42.032;-8.634;2023-03-20T03:46:13;101482.69;;;10.24;75.71
61528;BME280;47395;42.032;-8.634;2023-03-20T03:48:26;101477.56;;;10.19;75.59
61528;BME280;47395;42.032;-8.634;2023-03-20T03:50:51;101481.06;;;10.19;76.36
61528;BME280;47395;42.032;-8.634;2023-03-20T03:52:56;101483.66;;;10.21;76.91
61528;BME280;47395;42.032;-8.634;2023-03-20T03:55:02;101487.03;;;10.25;76.49
61528;BME280;47395;42.032;-8.634;2023-03-20T03:57:32;101481.72;;;10.26;76.19
61528;BME280;47395;42.032;-8.634;2023-03-20T03:59:36;101484.25;;;10.29;75.95
61528;BME280;47395;42.032;-8.634;2023-03-20T04:01:39;101483.31;;;10.30;76.18
61528;BME280;47395;42.032;-8.634;2023-03-20T04:03:51;101492.25;;;10.26;75.47
61528;BME280;47395;42.032;-8.634;2023-03-20T04:05:55;101487.19;;;10.20;75.28
61528;BME280;47395;42.032;-8.634;2023-03-20T04:07:59;101482.19;;;10.12;75.52
61528;BME280;47395;42.032;-8.634;2023-03-20T04:10:01;101499.06;;;10.06;75.46
61528;BME280;47395;42.032;-8.634;2023-03-20T04:12:02;101486.19;;;9.97;76.22
61528;BME280;47395;42.032;-8.634;2023-03-20T04:14:03;101489.81;;;9.95;76.41
61528;BME280;47395;42.032;-8.634;2023-03-20T04:16:05;101485.47;;;9.93;75.90
61528;BME280;47395;42.032;-8.634;2023-03-20T04:18:06;101485.50;;;9.92;75.55
61528;BME280;47395;42.032;-8.634;2023-03-20T04:20:09;101482.91;;;9.90;75.52
61528;BME280;47395;42.032;-8.634;2023-03-20T04:22:10;101477.81;;;9.86;75.43
61528;BME280;47395;42.032;-8.634;2023-03-20T04:24:11;101483.13;;;9.84;75.14
61528;BME280;47395;42.032;-8.634;2023-03-20T04:26:13;101483.09;;;9.86;75.59
61528;BME280;47395;42.032;-8.634;2023-03-20T04:28:14;101486.47;;;9.89;75.83
61528;BME280;47395;42.032;-8.634;2023-03-20T04:30:32;101489.06;;;9.64;75.78
61528;BME280;47395;42.032;-8.634;2023-03-20T04:33:02;101494.88;;;9.74;75.96
61528;BME280;47395;42.032;-8.634;2023-03-20T04:35:15;101493.00;;;9.77;76.12
61528;BME280;47395;42.032;-8.634;2023-03-20T04:37:22;101496.47;;;9.78;76.08
61528;BME280;47395;42.032;-8.634;2023-03-20T04:39:31;101493.81;;;9.79;76.57
61528;BME280;47395;42.032;-8.634;2023-03-20T04:41:32;101496.47;;;9.78;76.57
61528;BME280;47395;42.032;-8.634;2023-03-20T04:43:33;101498.19;;;9.81;76.42
61528;BME280;47395;42.032;-8.634;2023-03-20T04:45:34;101496.34;;;9.83;76.30
61528;BME280;47395;42.032;-8.634;2023-03-20T04:47:35;101500.72;;;9.82;76.14
61528;BME280;47395;42.032;-8.634;2023-03-20T04:49:37;101501.53;;;9.86;76.16
61528;BME280;47395;42.032;-8.634;2023-03-20T04:51:38;101506.78;;;9.86;75.91
61528;BME280;47395;42.032;-8.634;2023-03-20T04:53:39;101507.56;;;9.88;75.69
61528;BME280;47395;42.032;-8.634;2023-03-20T04:55:40;101508.31;;;9.91;75.72
61528;BME280;47395;42.032;-8.634;2023-03-20T04:57:41;101516.06;;;9.96;75.56
61528;BME280;47395;42.032;-8.634;2023-03-20T04:59:44;101517.00;;;9.95;76.05
61528;BME280;47395;42.032;-8.634;2023-03-20T05:03:56;101509.13;;;10.21;76.14
61528;BME280;47395;42.032;-8.634;2023-03-20T05:06:04;101505.97;;;10.36;75.49
61528;BME280;47395;42.032;-8.634;2023-03-20T05:08:06;101508.31;;;10.46;75.26
61528;BME280;47395;42.032;-8.634;2023-03-20T05:10:10;101509.91;;;10.50;74.61
61528;BME280;47395;42.032;-8.634;2023-03-20T05:12:29;101514.22;;;10.52;74.55
61528;BME280;47395;42.032;-8.634;2023-03-20T05:14:51;101519.47;;;10.52;74.14
61528;BME280;47395;42.032;-8.634;2023-03-20T05:17:15;101517.81;;;10.50;74.34
61528;BME280;47395;42.032;-8.634;2023-03-20T05:19:37;101511.72;;;10.48;74.16
61528;BME280;47395;42.032;-8.634;2023-03-20T05:21:56;101523.13;;;10.48;74.38
61528;BME280;47395;42.032;-8.634;2023-03-20T05:24:20;101516.28;;;10.42;74.42
61528;BME280;47395;42.032;-8.634;2023-03-20T05:26:36;101525.19;;;10.38;74.26
61528;BME280;47395;42.032;-8.634;2023-03-20T05:29:09;101524.28;;;10.39;74.25
61528;BME280;47395;42.032;-8.634;2023-03-20T05:31:31;101528.84;;;10.34;74.33
61528;BME280;47395;42.032;-8.634;2023-03-20T05:33:43;101529.88;;;10.30;74.34
61528;BME280;47395;42.032;-8.634;2023-03-20T05:35:54;101534.47;;;10.23;74.49
61528;BME280;47395;42.032;-8.634;2023-03-20T05:38:22;101542.38;;;10.23;74.70
61528;BME280;47395;42.032;-8.634;2023-03-20T05:40:58;101541.63;;;10.19;74.57
61528;BME280;47395;42.032;-8.634;2023-03-20T05:43:09;101540.72;;;10.21;74.77
61528;BME280;47395;42.032;-8.634;2023-03-20T05:45:30;101548.63;;;10.21;74.81
61528;BME280;47395;42.032;-8.634;2023-03-20T05:47:50;101548.34;;;10.28;74.34
61528;BME280;47395;42.032;-8.634;2023-03-20T05:50:16;101544.91;;;10.26;74.59
61528;BME280;47395;42.032;-8.634;2023-03-20T05:52:30;101542.34;;;10.25;74.28
61528;BME280;47395;42.032;-8.634;2023-03-20T05:54:49;101547.75;;;10.20;74.53
61528;BME280;47395;42.032;-8.634;2023-03-20T05:57:10;101537.28;;;10.18;74.34
61528;BME280;47395;42.032;-8.634;2023-03-20T05:59:30;101548.22;;;10.06;74.69
61528;BME280;47395;42.032;-8.634;2023-03-20T06:01:52;101550.50;;;10.17;74.64
61528;BME280;47395;42.032;-8.634;2023-03-20T06:04:02;101556.41;;;10.24;74.78
61528;BME280;47395;42.032;-8.634;2023-03-20T06:06:29;101548.72;;;10.17;75.02
61528;BME280;47395;42.032;-8.634;2023-03-20T06:08:30;101552.47;;;10.10;75.06
61528;BME280;47395;42.032;-8.634;2023-03-20T06:10:33;101553.28;;;10.12;75.41
61528;BME280;47395;42.032;-8.634;2023-03-20T06:12:34;101552.97;;;10.22;75.33
61528;BME280;47395;42.032;-8.634;2023-03-20T06:14:35;101559.75;;;10.29;75.36
61528;BME280;47395;42.032;-8.634;2023-03-20T06:16:40;101560.34;;;10.37;75.49
61528;BME280;47395;42.032;-8.634;2023-03-20T06:18:43;101568.25;;;10.37;75.33
61528;BME280;47395;42.032;-8.634;2023-03-20T06:20:44;101565.50;;;10.40;75.69
61528;BME280;47395;42.032;-8.634;2023-03-20T06:22:45;101563.44;;;10.50;75.65
61528;BME280;47395;42.032;-8.634;2023-03-20T06:24:49;101559.47;;;10.64;74.98
61528;BME280;47395;42.032;-8.634;2023-03-20T06:26:50;101560.00;;;10.74;74.48
61528;BME280;47395;42.032;-8.634;2023-03-20T06:28:54;101564.28;;;10.76;74.65
61528;BME280;47395;42.032;-8.634;2023-03-20T06:30:55;101554.63;;;10.77;74.34
61528;BME280;47395;42.032;-8.634;2023-03-20T06:32:57;101548.66;;;10.72;74.37
61528;BME280;47395;42.032;-8.634;2023-03-20T06:35:06;101555.50;;;10.76;74.55
61528;BME280;47395;42.032;-8.634;2023-03-20T06:37:08;101561.38;;;10.84;74.63
61528;BME280;47395;42.032;-8.634;2023-03-20T06:39:09;101565.47;;;10.93;74.72
61528;BME280;47395;42.032;-8.634;2023-03-20T06:41:11;101566.78;;;10.81;74.68
61528;BME280;47395;42.032;-8.634;2023-03-20T06:43:12;101567.34;;;10.89;74.56
61528;BME280;47395;42.032;-8.634;2023-03-20T06:45:21;101562.47;;;11.02;74.05
61528;BME280;47395;42.032;-8.634;2023-03-20T06:47:28;101570.97;;;11.10;74.03
61528;BME280;47395;42.032;-8.634;2023-03-20T06:49:30;101571.75;;;11.13;73.42
61528;BME280;47395;42.032;-8.634;2023-03-20T06:51:31;101573.72;;;10.83;73.71
61528;BME280;47395;42.032;-8.634;2023-03-20T06:53:32;101575.91;;;10.96;74.16
61528;BME280;47395;42.032;-8.634;2023-03-20T06:55:49;101573.31;;;10.94;73.94
61528;BME280;47395;42.032;-8.634;2023-03-20T06:57:51;101583.47;;;11.05;74.08
61528;BME280;47395;42.032;-8.634;2023-03-20T06:59:53;101577.25;;;10.82;73.56
61528;BME280;47395;42.032;-8.634;2023-03-20T07:01:54;101585.47;;;10.99;74.02
61528;BME280;47395;42.032;-8.634;2023-03-20T07:03:56;101587.97;;;11.02;73.40
61528;BME280;47395;42.032;-8.634;2023-03-20T07:06:01;101593.84;;;11.10;72.94
61528;BME280;47395;42.032;-8.634;2023-03-20T07:08:04;101582.31;;;10.89;73.09
61528;BME280;47395;42.032;-8.634;2023-03-20T07:10:06;101590.56;;;11.03;73.06
61528;BME280;47395;42.032;-8.634;2023-03-20T07:12:12;101585.19;;;11.06;73.10
61528;BME280;47395;42.032;-8.634;2023-03-20T07:14:15;101585.72;;;11.16;72.99
61528;BME280;47395;42.032;-8.634;2023-03-20T07:16:24;101592.97;;;11.33;72.38
61528;BME280;47395;42.032;-8.634;2023-03-20T07:18:26;101587.06;;;11.27;73.03
61528;BME280;47395;42.032;-8.634;2023-03-20T07:20:27;101580.47;;;11.39;72.39
61528;BME280;47395;42.032;-8.634;2023-03-20T07:22:29;101585.78;;;11.37;72.39
61528;BME280;47395;42.032;-8.634;2023-03-20T07:24:49;101580.91;;;11.50;71.90
61528;BME280;47395;42.032;-8.634;2023-03-20T07:26:50;101591.66;;;11.68;71.75
61528;BME280;47395;42.032;-8.634;2023-03-20T07:28:52;101594.66;;;11.81;70.89
61528;BME280;47395;42.032;-8.634;2023-03-20T07:30:57;101590.50;;;11.97;70.83
61528;BME280;47395;42.032;-8.634;2023-03-20T07:32:59;101589.03;;;12.12;70.51
61528;BME280;47395;42.032;-8.634;2023-03-20T07:35:05;101591.28;;;12.22;70.11
61528;BME280;47395;42.032;-8.634;2023-03-20T07:37:07;101584.34;;;12.19;69.63
61528;BME280;47395;42.032;-8.634;2023-03-20T07:39:09;101590.69;;;12.15;69.64
61528;BME280;47395;42.032;-8.634;2023-03-20T07:41:13;101588.44;;;12.26;70.00
61528;BME280;47395;42.032;-8.634;2023-03-20T07:43:20;101589.59;;;12.21;70.27
61528;BME280;47395;42.032;-8.634;2023-03-20T07:45:41;101584.34;;;11.97;70.27
61528;BME280;47395;42.032;-8.634;2023-03-20T07:47:43;101581.41;;;11.82;70.39
61528;BME280;47395;42.032;-8.634;2023-03-20T07:49:47;101588.41;;;11.83;71.01
61528;BME280;47395;42.032;-8.634;2023-03-20T07:51:49;101590.31;;;11.80;70.40
61528;BME280;47395;42.032;-8.634;2023-03-20T07:53:50;101583.44;;;11.98;71.02
61528;BME280;47395;42.032;-8.634;2023-03-20T07:55:51;101580.53;;;12.04;70.34
61528;BME280;47395;42.032;-8.634;2023-03-20T07:57:52;101581.84;;;12.16;70.29
61528;BME280;47395;42.032;-8.634;2023-03-20T07:59:53;101585.13;;;12.21;70.82
61528;BME280;47395;42.032;-8.634;2023-03-20T08:01:53;101579.81;;;12.44;70.22
61528;BME280;47395;42.032;-8.634;2023-03-20T08:03:54;101579.06;;;12.61;69.45
61528;BME280;47395;42.032;-8.634;2023-03-20T08:05:56;101572.41;;;12.92;68.49
61528;BME280;47395;42.032;-8.634;2023-03-20T08:07:57;101570.59;;;13.13;67.92
61528;BME280;47395;42.032;-8.634;2023-03-20T08:09:58;101577.72;;;13.11;67.65
61528;BME280;47395;42.032;-8.634;2023-03-20T08:11:59;101572.41;;;13.51;66.93
61528;BME280;47395;42.032;-8.634;2023-03-20T08:14:00;101582.38;;;13.64;65.13
61528;BME280;47395;42.032;-8.634;2023-03-20T08:16:01;101577.00;;;13.84;65.25
61528;BME280;47395;42.032;-8.634;2023-03-20T08:18:02;101581.31;;;13.68;64.59
61528;BME280;47395;42.032;-8.634;2023-03-20T08:20:03;101577.69;;;13.88;64.78
61528;BME280;47395;42.032;-8.634;2023-03-20T08:22:06;101577.88;;;14.03;65.23
61528;BME280;47395;42.032;-8.634;2023-03-20T08:24:07;101587.41;;;14.07;65.01
61528;BME280;47395;42.032;-8.634;2023-03-20T08:26:08;101583.31;;;14.00;65.10
61528;BME280;47395;42.032;-8.634;2023-03-20T08:28:09;101587.06;;;14.13;64.95
61528;BME280;47395;42.032;-8.634;2023-03-20T08:30:11;101585.50;;;14.09;64.70
61528;BME280;47395;42.032;-8.634;2023-03-20T08:32:13;101590.75;;;14.10;64.48
61528;BME280;47395;42.032;-8.634;2023-03-20T08:34:15;101596.13;;;14.09;64.27
61528;BME280;47395;42.032;-8.634;2023-03-20T08:36:16;101591.81;;;14.06;64.16
61528;BME280;47395;42.032;-8.634;2023-03-20T08:38:20;101583.66;;;13.93;64.58
61528;BME280;47395;42.032;-8.634;2023-03-20T08:40:21;101583.72;;;14.09;64.48
61528;BME280;47395;42.032;-8.634;2023-03-20T08:42:22;101584.38;;;14.32;64.30
61528;BME280;47395;42.032;-8.634;2023-03-20T08:44:22;101589.56;;;14.52;63.13
61528;BME280;47395;42.032;-8.634;2023-03-20T08:46:24;101594.53;;;14.75;63.25
61528;BME280;47395;42.032;-8.634;2023-03-20T08:48:25;101593.84;;;14.72;62.41
61528;BME280;47395;42.032;-8.634;2023-03-20T08:50:26;101591.41;;;14.85;62.86
61528;BME280;47395;42.032;-8.634;2023-03-20T08:52:27;101588.56;;;15.06;62.90
61528;BME280;47395;42.032;-8.634;2023-03-20T08:54:28;101591.69;;;15.30;61.97
61528;BME280;47395;42.032;-8.634;2023-03-20T08:56:29;101593.06;;;15.37;60.81
61528;BME280;47395;42.032;-8.634;2023-03-20T08:58:30;101601.94;;;15.52;59.97
61528;BME280;47395;42.032;-8.634;2023-03-20T09:00:31;101592.97;;;15.55;59.61
61528;BME280;47395;42.032;-8.634;2023-03-20T09:02:34;101599.09;;;15.88;59.70
61528;BME280;47395;42.032;-8.634;2023-03-20T09:04:36;101587.88;;;15.99;59.94
61528;BME280;47395;42.032;-8.634;2023-03-20T09:06:38;101599.97;;;16.35;58.83
61528;BME280;47395;42.032;-8.634;2023-03-20T09:08:40;101593.72;;;16.65;57.55
61528;BME280;47395;42.032;-8.634;2023-03-20T09:10:41;101590.69;;;16.57;57.99
61528;BME280;47395;42.032;-8.634;2023-03-20T09:12:42;101596.03;;;17.01;57.90
61528;BME280;47395;42.032;-8.634;2023-03-20T09:14:43;101578.09;;;17.88;57.28
61528;BME280;47395;42.032;-8.634;2023-03-20T09:16:44;101579.47;;;18.87;54.44
61528;BME280;47395;42.032;-8.634;2023-03-20T09:18:45;101580.94;;;19.17;52.54
61528;BME280;47395;42.032;-8.634;2023-03-20T09:20:46;101592.06;;;18.98;52.18
61528;BME280;47395;42.032;-8.634;2023-03-20T09:22:48;101588.88;;;19.05;52.21
61528;BME280;47395;42.032;-8.634;2023-03-20T09:24:49;101581.38;;;18.98;52.26
61528;BME280;47395;42.032;-8.634;2023-03-20T09:26:50;101584.19;;;18.70;54.12
61528;BME280;47395;42.032;-8.634;2023-03-20T09:28:51;101580.41;;;18.99;52.78
61528;BME280;47395;42.032;-8.634;2023-03-20T09:30:56;101574.53;;;19.57;51.67
61528;BME280;47395;42.032;-8.634;2023-03-20T09:32:58;101579.13;;;19.55;50.23
61528;BME280;47395;42.032;-8.634;2023-03-20T09:35:00;101580.38;;;19.62;51.03
61528;BME280;47395;42.032;-8.634;2023-03-20T09:37:01;101576.31;;;20.41;49.41
61528;BME280;47395;42.032;-8.634;2023-03-20T09:39:03;101587.78;;;20.66;49.93
61528;BME280;47395;42.032;-8.634;2023-03-20T09:41:04;101588.91;;;20.98;48.50
61528;BME280;47395;42.032;-8.634;2023-03-20T09:48:17;101585.03;;;21.58;47.54
61528;BME280;47395;42.032;-8.634;2023-03-20T09:52:32;101580.38;;;21.60;47.54
61528;BME280;47395;42.032;-8.634;2023-03-20T09:54:44;101584.53;;;21.64;46.75
61528;BME280;47395;42.032;-8.634;2023-03-20T09:56:48;101581.94;;;22.71;45.54
61528;BME280;47395;42.032;-8.634;2023-03-20T09:59:10;101583.63;;;23.44;43.21
61528;BME280;47395;42.032;-8.634;2023-03-20T10:01:14;101584.69;;;23.31;43.85
61528;BME280;47395;42.032;-8.634;2023-03-20T10:03:20;101572.50;;;23.27;43.40
61528;BME280;47395;42.032;-8.634;2023-03-20T10:05:27;101570.34;;;24.59;41.45
61528;BME280;47395;42.032;-8.634;2023-03-20T10:07:29;101573.41;;;25.59;39.49
61528;BME280;47395;42.032;-8.634;2023-03-20T10:09:31;101568.13;;;27.00;37.11
61528;BME280;47395;42.032;-8.634;2023-03-20T10:12:47;101569.19;;;27.07;36.99
61528;BME280;47395;42.032;-8.634;2023-03-20T10:15:07;101579.78;;;29.00;34.35
61528;BME280;47395;42.032;-8.634;2023-03-20T10:17:40;101566.81;;;29.10;32.77
61528;BME280;47395;42.032;-8.634;2023-03-20T10:19:56;101569.53;;;29.65;32.55
61528;BME280;47395;42.032;-8.634;2023-03-20T10:22:36;101568.13;;;29.93;32.09
61528;BME280;47395;42.032;-8.634;2023-03-20T10:24:41;101566.63;;;30.44;31.59
61528;BME280;47395;42.032;-8.634;2023-03-20T10:26:51;101566.16;;;30.40;29.89
61528;BME280;47395;42.032;-8.634;2023-03-20T10:29:00;101572.78;;;31.57;30.24
61528;BME280;47395;42.032;-8.634;2023-03-20T10:31:28;101572.41;;;31.38;29.25
61528;BME280;47395;42.032;-8.634;2023-03-20T10:34:00;101563.59;;;31.58;29.58
61528;BME280;47395;42.032;-8.634;2023-03-20T10:36:39;101559.22;;;31.85;28.75
61528;BME280;47395;42.032;-8.634;2023-03-20T10:39:17;101557.22;;;32.58;27.57
61528;BME280;47395;42.032;-8.634;2023-03-20T10:41:26;101564.84;;;32.06;27.99
61528;BME280;47395;42.032;-8.634;2023-03-20T10:43:33;101563.81;;;30.82;30.62
61528;BME280;47395;42.032;-8.634;2023-03-20T10:45:49;101555.19;;;32.38;27.92
61528;BME280;47395;42.032;-8.634;2023-03-20T10:47:52;101554.94;;;31.98;27.41
61528;BME280;47395;42.032;-8.634;2023-03-20T10:49:57;101566.63;;;32.20;28.47
61528;BME280;47395;42.032;-8.634;2023-03-20T10:52:05;101558.06;;;32.65;27.61
61528;BME280;47395;42.032;-8.634;2023-03-20T10:54:25;101557.00;;;33.02;26.98
61528;BME280;47395;42.032;-8.634;2023-03-20T10:56:35;101556.28;;;33.62;26.86
61528;BME280;47395;42.032;-8.634;2023-03-20T10:58:42;101561.50;;;33.97;27.05
61528;BME280;47395;42.032;-8.634;2023-03-20T11:00:44;101555.88;;;33.65;26.00
61528;BME280;47395;42.032;-8.634;2023-03-20T11:02:46;101550.16;;;34.01;25.73
61528;BME280;47395;42.032;-8.634;2023-03-20T11:04:48;101546.25;;;34.62;25.05
61528;BME280;47395;42.032;-8.634;2023-03-20T11:07:24;101541.50;;;34.37;25.28
61528;BME280;47395;42.032;-8.634;2023-03-20T11:09:24;101544.25;;;34.31;25.29
61528;BME280;47395;42.032;-8.634;2023-03-20T11:11:33;101541.31;;;34.32;26.06
61528;BME280;47395;42.032;-8.634;2023-03-20T11:13:37;101538.47;;;34.59;24.90
61528;BME280;47395;42.032;-8.634;2023-03-20T11:15:39;101541.63;;;35.02;26.03
61528;BME280;47395;42.032;-8.634;2023-03-20T11:17:40;101541.69;;;35.60;24.35
61528;BME280;47395;42.032;-8.634;2023-03-20T11:19:41;101548.50;;;35.50;23.97
61528;BME280;47395;42.032;-8.634;2023-03-20T11:21:54;101543.91;;;35.76;24.66
61528;BME280;47395;42.032;-8.634;2023-03-20T11:24:00;101540.53;;;35.74;25.80
61528;BME280;47395;42.032;-8.634;2023-03-20T11:26:03;101539.91;;;35.14;25.75
61528;BME280;47395;42.032;-8.634;2023-03-20T11:28:35;101541.72;;;35.27;25.22
61528;BME280;47395;42.032;-8.634;2023-03-20T11:30:39;101538.44;;;35.95;22.74
61528;BME280;47395;42.032;-8.634;2023-03-20T11:32:49;101529.22;;;34.99;23.47
61528;BME280;47395;42.032;-8.634;2023-03-20T11:34:55;101530.13;;;34.93;24.59
61528;BME280;47395;42.032;-8.634;2023-03-20T11:37:01;101538.84;;;33.90;26.51